sensor_id;sensor_type;location;lat;lon;timestamp;P1;durP1;ratioP1;P2;durP2;ratioP2
65377;SDS011;51982;51.042;13.806;2023-09-19T00:00:00;6.70;;;3.55;;
65377;SDS011;51982;51.042;13.806;2023-09-19T00:02:26;4.35;;;3.28;;
65377;SDS011;51982;51.042;13.806;2023-09-19T00:04:51;4.53;;;3.25;;
65377;SDS011;51982;51.042;13.806;2023-09-19T00:07:17;5.72;;;3.58;;
65377;SDS011;51982;51.042;13.806;2023-09-19T00:09:42;6.65;;;3.95;;
65377;SDS011;51982;51.042;13.806;2023-09-19T00:12:09;5.97;;;3.50;;
65377;SDS011;51982;51.042;13.806;2023-09-19T00:14:34;4.85;;;3.30;;
65377;SDS011;51982;51.042;13.806;2023-09-19T00:17:00;4.78;;;3.47;;
65377;SDS011;51982;51.042;13.806;2023-09-19T00:19:30;5.97;;;3.42;;
65377;SDS011;51982;51.042;13.806;2023-09-19T00:21:57;10.60;;;3.67;;
65377;SDS011;51982;51.042;13.806;2023-09-19T00:24:22;6.03;;;3.60;;
65377;SDS011;51982;51.042;13.806;2023-09-19T00:26:48;6.00;;;3.58;;
65377;SDS011;51982;51.042;13.806;2023-09-19T00:29:13;11.73;;;3.65;;
65377;SDS011;51982;51.042;13.806;2023-09-19T00:31:43;6.05;;;3.35;;
65377;SDS011;51982;51.042;13.806;2023-09-19T00:34:08;6.30;;;3.58;;
65377;SDS011;51982;51.042;13.806;2023-09-19T00:36:35;7.53;;;3.80;;
65377;SDS011;51982;51.042;13.806;2023-09-19T00:39:03;4.82;;;3.55;;
65377;SDS011;51982;51.042;13.806;2023-09-19T00:41:30;6.05;;;3.70;;
65377;SDS011;51982;51.042;13.806;2023-09-19T00:43:55;7.05;;;3.70;;
65377;SDS011;51982;51.042;13.806;2023-09-19T00:46:20;5.40;;;3.77;;
65377;SDS011;51982;51.042;13.806;2023-09-19T00:48:46;11.75;;;4.32;;
65377;SDS011;51982;51.042;13.806;2023-09-19T00:51:11;8.07;;;3.95;;
65377;SDS011;51982;51.042;13.806;2023-09-19T00:53:39;5.82;;;3.75;;
65377;SDS011;51982;51.042;13.806;2023-09-19T00:56:07;9.13;;;3.78;;
65377;SDS011;51982;51.042;13.806;2023-09-19T00:58:32;4.95;;;3.50;;
65377;SDS011;51982;51.042;13.806;2023-09-19T01:01:00;5.88;;;3.88;;
65377;SDS011;51982;51.042;13.806;2023-09-19T01:03:26;7.45;;;4.13;;
65377;SDS011;51982;51.042;13.806;2023-09-19T01:05:52;11.15;;;3.92;;
65377;SDS011;51982;51.042;13.806;2023-09-19T01:08:18;5.72;;;3.70;;
65377;SDS011;51982;51.042;13.806;2023-09-19T01:10:51;7.47;;;4.28;;
65377;SDS011;51982;51.042;13.806;2023-09-19T01:13:29;6.32;;;4.03;;
65377;SDS011;51982;51.042;13.806;2023-09-19T01:22:00;7.15;;;4.05;;
65377;SDS011;51982;51.042;13.806;2023-09-19T01:24:54;5.60;;;4.07;;
65377;SDS011;51982;51.042;13.806;2023-09-19T01:27:53;6.95;;;4.18;;
65377;SDS011;51982;51.042;13.806;2023-09-19T01:30:45;5.75;;;3.83;;
65377;SDS011;51982;51.042;13.806;2023-09-19T01:33:11;5.85;;;3.92;;
65377;SDS011;51982;51.042;13.806;2023-09-19T01:35:37;5.82;;;3.97;;
65377;SDS011;51982;51.042;13.806;2023-09-19T01:38:04;7.35;;;3.75;;
65377;SDS011;51982;51.042;13.806;2023-09-19T01:40:30;7.90;;;3.97;;
65377;SDS011;51982;51.042;13.806;2023-09-19T01:42:59;5.60;;;3.47;;
65377;SDS011;51982;51.042;13.806;2023-09-19T01:51:05;7.45;;;4.10;;
65377;SDS011;51982;51.042;13.806;2023-09-19T01:53:36;4.80;;;3.72;;
65377;SDS011;51982;51.042;13.806;2023-09-19T01:56:12;8.13;;;3.97;;
65377;SDS011;51982;51.042;13.806;2023-09-19T01:58:48;5.50;;;3.50;;
65377;SDS011;51982;51.042;13.806;2023-09-19T02:01:16;5.00;;;3.40;;
65377;SDS011;51982;51.042;13.806;2023-09-19T02:03:44;7.38;;;3.70;;
65377;SDS011;51982;51.042;13.806;2023-09-19T02:06:15;6.28;;;3.20;;
65377;SDS011;51982;51.042;13.806;2023-09-19T02:08:43;6.05;;;3.50;;
65377;SDS011;51982;51.042;13.806;2023-09-19T02:11:09;3.92;;;3.33;;
65377;SDS011;51982;51.042;13.806;2023-09-19T02:13:35;6.47;;;3.42;;
65377;SDS011;51982;51.042;13.806;2023-09-19T02:16:01;9.38;;;3.47;;
65377;SDS011;51982;51.042;13.806;2023-09-19T02:18:29;5.25;;;3.47;;
65377;SDS011;51982;51.042;13.806;2023-09-19T02:20:55;4.53;;;3.00;;
65377;SDS011;51982;51.042;13.806;2023-09-19T02:23:21;5.95;;;3.33;;
65377;SDS011;51982;51.042;13.806;2023-09-19T02:26:20;5.53;;;3.80;;
65377;SDS011;51982;51.042;13.806;2023-09-19T02:28:38;5.03;;;3.40;;
65377;SDS011;51982;51.042;13.806;2023-09-19T02:31:04;4.38;;;3.08;;
65377;SDS011;51982;51.042;13.806;2023-09-19T02:33:32;5.32;;;3.28;;
65377;SDS011;51982;51.042;13.806;2023-09-19T02:35:57;4.03;;;3.10;;
65377;SDS011;51982;51.042;13.806;2023-09-19T02:38:23;4.25;;;3.35;;
65377;SDS011;51982;51.042;13.806;2023-09-19T02:40:50;4.00;;;3.33;;
65377;SDS011;51982;51.042;13.806;2023-09-19T02:43:16;5.63;;;3.38;;
65377;SDS011;51982;51.042;13.806;2023-09-19T02:45:42;4.63;;;3.60;;
65377;SDS011;51982;51.042;13.806;2023-09-19T02:48:07;7.53;;;3.42;;
65377;SDS011;51982;51.042;13.806;2023-09-19T02:50:33;3.85;;;3.22;;
65377;SDS011;51982;51.042;13.806;2023-09-19T02:52:59;5.30;;;2.97;;
65377;SDS011;51982;51.042;13.806;2023-09-19T02:55:24;7.70;;;3.13;;
65377;SDS011;51982;51.042;13.806;2023-09-19T02:57:50;4.10;;;3.00;;
65377;SDS011;51982;51.042;13.806;2023-09-19T03:00:21;4.65;;;2.92;;
65377;SDS011;51982;51.042;13.806;2023-09-19T03:02:53;8.00;;;2.88;;
65377;SDS011;51982;51.042;13.806;2023-09-19T03:05:19;5.00;;;2.78;;
65377;SDS011;51982;51.042;13.806;2023-09-19T03:07:46;3.67;;;2.85;;
65377;SDS011;51982;51.042;13.806;2023-09-19T03:10:15;5.97;;;2.90;;
65377;SDS011;51982;51.042;13.806;2023-09-19T03:12:41;4.05;;;2.65;;
65377;SDS011;51982;51.042;13.806;2023-09-19T03:15:07;7.13;;;3.25;;
65377;SDS011;51982;51.042;13.806;2023-09-19T03:17:33;5.00;;;2.42;;
65377;SDS011;51982;51.042;13.806;2023-09-19T03:20:00;4.43;;;2.80;;
65377;SDS011;51982;51.042;13.806;2023-09-19T03:22:26;4.37;;;2.90;;
65377;SDS011;51982;51.042;13.806;2023-09-19T03:24:52;4.25;;;2.70;;
65377;SDS011;51982;51.042;13.806;2023-09-19T03:27:18;5.05;;;2.70;;
65377;SDS011;51982;51.042;13.806;2023-09-19T03:29:43;5.03;;;2.50;;
65377;SDS011;51982;51.042;13.806;2023-09-19T03:32:08;6.40;;;2.50;;
65377;SDS011;51982;51.042;13.806;2023-09-19T03:34:37;3.28;;;2.38;;
65377;SDS011;51982;51.042;13.806;2023-09-19T03:37:05;5.65;;;2.40;;
65377;SDS011;51982;51.042;13.806;2023-09-19T03:39:31;7.65;;;2.95;;
65377;SDS011;51982;51.042;13.806;2023-09-19T03:41:57;4.63;;;2.70;;
65377;SDS011;51982;51.042;13.806;2023-09-19T03:44:24;3.97;;;2.53;;
65377;SDS011;51982;51.042;13.806;2023-09-19T03:46:50;3.43;;;2.70;;
65377;SDS011;51982;51.042;13.806;2023-09-19T03:49:15;5.80;;;2.03;;
65377;SDS011;51982;51.042;13.806;2023-09-19T03:51:40;5.57;;;2.10;;
65377;SDS011;51982;51.042;13.806;2023-09-19T03:54:06;5.65;;;2.20;;
65377;SDS011;51982;51.042;13.806;2023-09-19T03:56:32;9.48;;;2.42;;
65377;SDS011;51982;51.042;13.806;2023-09-19T03:58:57;3.22;;;2.10;;
65377;SDS011;51982;51.042;13.806;2023-09-19T04:01:23;4.00;;;1.90;;
65377;SDS011;51982;51.042;13.806;2023-09-19T04:03:48;3.45;;;1.80;;
65377;SDS011;51982;51.042;13.806;2023-09-19T04:06:15;3.30;;;1.75;;
65377;SDS011;51982;51.042;13.806;2023-09-19T04:08:41;5.50;;;2.00;;
65377;SDS011;51982;51.042;13.806;2023-09-19T04:11:07;7.13;;;1.88;;
65377;SDS011;51982;51.042;13.806;2023-09-19T04:13:33;3.90;;;1.67;;
65377;SDS011;51982;51.042;13.806;2023-09-19T04:15:58;3.20;;;1.55;;
65377;SDS011;51982;51.042;13.806;2023-09-19T04:18:24;3.55;;;1.60;;
65377;SDS011;51982;51.042;13.806;2023-09-19T04:20:50;2.55;;;1.40;;
65377;SDS011;51982;51.042;13.806;2023-09-19T04:23:15;2.47;;;1.60;;
65377;SDS011;51982;51.042;13.806;2023-09-19T04:25:41;4.20;;;1.50;;
65377;SDS011;51982;51.042;13.806;2023-09-19T04:28:07;1.10;;;1.00;;
65377;SDS011;51982;51.042;13.806;2023-09-19T04:30:32;3.65;;;1.30;;
65377;SDS011;51982;51.042;13.806;2023-09-19T04:32:57;2.30;;;1.10;;
65377;SDS011;51982;51.042;13.806;2023-09-19T04:35:23;3.20;;;1.00;;
65377;SDS011;51982;51.042;13.806;2023-09-19T04:37:48;2.55;;;1.35;;
65377;SDS011;51982;51.042;13.806;2023-09-19T04:40:15;1.38;;;1.10;;
65377;SDS011;51982;51.042;13.806;2023-09-19T04:42:42;8.15;;;1.17;;
65377;SDS011;51982;51.042;13.806;2023-09-19T04:45:09;1.50;;;1.10;;
65377;SDS011;51982;51.042;13.806;2023-09-19T04:47:35;2.05;;;1.10;;
65377;SDS011;51982;51.042;13.806;2023-09-19T04:50:03;3.05;;;1.30;;
65377;SDS011;51982;51.042;13.806;2023-09-19T04:52:30;2.10;;;1.10;;
65377;SDS011;51982;51.042;13.806;2023-09-19T04:54:56;1.80;;;1.20;;
65377;SDS011;51982;51.042;13.806;2023-09-19T04:57:22;5.38;;;1.45;;
65377;SDS011;51982;51.042;13.806;2023-09-19T04:59:47;4.78;;;1.30;;
65377;SDS011;51982;51.042;13.806;2023-09-19T05:02:13;2.17;;;1.20;;
65377;SDS011;51982;51.042;13.806;2023-09-19T05:04:38;5.50;;;1.20;;
65377;SDS011;51982;51.042;13.806;2023-09-19T05:07:03;2.22;;;1.20;;
65377;SDS011;51982;51.042;13.806;2023-09-19T05:09:29;2.55;;;1.23;;
65377;SDS011;51982;51.042;13.806;2023-09-19T05:11:54;2.22;;;1.10;;
65377;SDS011;51982;51.042;13.806;2023-09-19T05:14:21;1.60;;;1.05;;
65377;SDS011;51982;51.042;13.806;2023-09-19T05:16:47;3.65;;;1.38;;
65377;SDS011;51982;51.042;13.806;2023-09-19T05:19:12;3.92;;;1.20;;
65377;SDS011;51982;51.042;13.806;2023-09-19T05:21:38;5.13;;;1.50;;
65377;SDS011;51982;51.042;13.806;2023-09-19T05:24:04;2.60;;;1.02;;
65377;SDS011;51982;51.042;13.806;2023-09-19T05:26:31;2.17;;;1.20;;
65377;SDS011;51982;51.042;13.806;2023-09-19T05:28:57;1.95;;;1.30;;
65377;SDS011;51982;51.042;13.806;2023-09-19T05:31:22;5.03;;;1.33;;
65377;SDS011;51982;51.042;13.806;2023-09-19T05:33:49;5.60;;;1.40;;
65377;SDS011;51982;51.042;13.806;2023-09-19T05:36:15;3.90;;;1.42;;
65377;SDS011;51982;51.042;13.806;2023-09-19T05:38:40;4.72;;;1.40;;
65377;SDS011;51982;51.042;13.806;2023-09-19T05:41:07;3.53;;;1.70;;
65377;SDS011;51982;51.042;13.806;2023-09-19T05:43:34;11.48;;;1.83;;
65377;SDS011;51982;51.042;13.806;2023-09-19T05:46:02;3.97;;;1.55;;
65377;SDS011;51982;51.042;13.806;2023-09-19T05:48:27;6.65;;;2.10;;
65377;SDS011;51982;51.042;13.806;2023-09-19T05:50:53;5.50;;;1.77;;
65377;SDS011;51982;51.042;13.806;2023-09-19T05:53:18;3.58;;;1.80;;
65377;SDS011;51982;51.042;13.806;2023-09-19T05:55:43;1.40;;;1.17;;
65377;SDS011;51982;51.042;13.806;2023-09-19T05:58:08;2.53;;;1.55;;
65377;SDS011;51982;51.042;13.806;2023-09-19T06:00:35;3.10;;;1.35;;
65377;SDS011;51982;51.042;13.806;2023-09-19T06:03:01;3.90;;;1.25;;
65377;SDS011;51982;51.042;13.806;2023-09-19T06:05:27;1.63;;;1.20;;
65377;SDS011;51982;51.042;13.806;2023-09-19T06:07:54;3.80;;;1.23;;
65377;SDS011;51982;51.042;13.806;2023-09-19T06:10:19;2.13;;;1.10;;
65377;SDS011;51982;51.042;13.806;2023-09-19T06:12:48;4.45;;;1.40;;
65377;SDS011;51982;51.042;13.806;2023-09-19T06:15:14;5.43;;;1.25;;
65377;SDS011;51982;51.042;13.806;2023-09-19T06:17:41;2.40;;;1.13;;
65377;SDS011;51982;51.042;13.806;2023-09-19T06:20:07;3.10;;;1.25;;
65377;SDS011;51982;51.042;13.806;2023-09-19T06:22:40;10.32;;;1.13;;
65377;SDS011;51982;51.042;13.806;2023-09-19T06:25:06;3.75;;;1.10;;
65377;SDS011;51982;51.042;13.806;2023-09-19T06:27:32;2.50;;;1.35;;
65377;SDS011;51982;51.042;13.806;2023-09-19T06:29:57;3.00;;;1.17;;
65377;SDS011;51982;51.042;13.806;2023-09-19T06:32:28;2.40;;;1.30;;
65377;SDS011;51982;51.042;13.806;2023-09-19T06:34:54;3.45;;;1.23;;
65377;SDS011;51982;51.042;13.806;2023-09-19T06:37:20;3.28;;;1.20;;
65377;SDS011;51982;51.042;13.806;2023-09-19T06:39:46;2.38;;;1.10;;
65377;SDS011;51982;51.042;13.806;2023-09-19T06:42:12;1.67;;;1.08;;
65377;SDS011;51982;51.042;13.806;2023-09-19T06:44:38;1.42;;;0.90;;
65377;SDS011;51982;51.042;13.806;2023-09-19T06:47:03;1.92;;;1.00;;
65377;SDS011;51982;51.042;13.806;2023-09-19T06:49:29;4.25;;;1.00;;
65377;SDS011;51982;51.042;13.806;2023-09-19T06:51:55;2.30;;;1.05;;
65377;SDS011;51982;51.042;13.806;2023-09-19T06:54:22;0.85;;;0.85;;
65377;SDS011;51982;51.042;13.806;2023-09-19T06:56:47;2.97;;;1.10;;
65377;SDS011;51982;51.042;13.806;2023-09-19T06:59:12;2.70;;;0.97;;
65377;SDS011;51982;51.042;13.806;2023-09-19T07:01:39;4.40;;;1.20;;
65377;SDS011;51982;51.042;13.806;2023-09-19T07:04:05;5.20;;;1.20;;
65377;SDS011;51982;51.042;13.806;2023-09-19T07:06:30;3.88;;;1.13;;
65377;SDS011;51982;51.042;13.806;2023-09-19T07:08:55;1.95;;;1.00;;
65377;SDS011;51982;51.042;13.806;2023-09-19T07:11:20;1.63;;;1.00;;
65377;SDS011;51982;51.042;13.806;2023-09-19T07:13:47;2.95;;;1.08;;
65377;SDS011;51982;51.042;13.806;2023-09-19T07:16:12;3.58;;;1.00;;
65377;SDS011;51982;51.042;13.806;2023-09-19T07:18:52;2.83;;;1.30;;
65377;SDS011;51982;51.042;13.806;2023-09-19T07:21:17;3.83;;;1.20;;
65377;SDS011;51982;51.042;13.806;2023-09-19T07:23:42;4.90;;;1.30;;
65377;SDS011;51982;51.042;13.806;2023-09-19T07:26:07;3.65;;;0.90;;
65377;SDS011;51982;51.042;13.806;2023-09-19T07:28:33;3.22;;;1.60;;
65377;SDS011;51982;51.042;13.806;2023-09-19T07:31:01;1.55;;;1.17;;
65377;SDS011;51982;51.042;13.806;2023-09-19T07:33:28;1.75;;;1.10;;
65377;SDS011;51982;51.042;13.806;2023-09-19T07:35:53;1.70;;;1.20;;
65377;SDS011;51982;51.042;13.806;2023-09-19T07:38:18;1.07;;;0.80;;
65377;SDS011;51982;51.042;13.806;2023-09-19T07:40:44;1.90;;;1.20;;
65377;SDS011;51982;51.042;13.806;2023-09-19T07:43:09;2.95;;;1.00;;
65377;SDS011;51982;51.042;13.806;2023-09-19T07:45:34;1.80;;;1.10;;
65377;SDS011;51982;51.042;13.806;2023-09-19T07:48:01;2.38;;;1.02;;
65377;SDS011;51982;51.042;13.806;2023-09-19T07:50:32;2.47;;;1.00;;
65377;SDS011;51982;51.042;13.806;2023-09-19T07:52:58;1.75;;;1.00;;
65377;SDS011;51982;51.042;13.806;2023-09-19T07:55:24;1.30;;;0.90;;
65377;SDS011;51982;51.042;13.806;2023-09-19T07:57:50;2.85;;;0.85;;
65377;SDS011;51982;51.042;13.806;2023-09-19T08:00:16;1.98;;;0.90;;
65377;SDS011;51982;51.042;13.806;2023-09-19T08:02:42;1.37;;;0.80;;
65377;SDS011;51982;51.042;13.806;2023-09-19T08:05:08;3.15;;;1.10;;
65377;SDS011;51982;51.042;13.806;2023-09-19T08:07:35;2.67;;;1.63;;
65377;SDS011;51982;51.042;13.806;2023-09-19T08:10:04;1.50;;;0.85;;
65377;SDS011;51982;51.042;13.806;2023-09-19T08:12:32;1.90;;;0.88;;
65377;SDS011;51982;51.042;13.806;2023-09-19T08:14:58;1.60;;;0.80;;
65377;SDS011;51982;51.042;13.806;2023-09-19T08:17:24;1.42;;;0.82;;
65377;SDS011;51982;51.042;13.806;2023-09-19T08:19:49;3.97;;;0.80;;
65377;SDS011;51982;51.042;13.806;2023-09-19T08:22:17;2.03;;;0.73;;
65377;SDS011;51982;51.042;13.806;2023-09-19T08:24:43;1.70;;;0.70;;
65377;SDS011;51982;51.042;13.806;2023-09-19T08:27:08;2.23;;;0.97;;
65377;SDS011;51982;51.042;13.806;2023-09-19T08:29:35;3.53;;;0.90;;
65377;SDS011;51982;51.042;13.806;2023-09-19T08:32:00;3.90;;;1.10;;
65377;SDS011;51982;51.042;13.806;2023-09-19T08:34:26;2.47;;;0.70;;
65377;SDS011;51982;51.042;13.806;2023-09-19T08:36:51;2.00;;;0.77;;
65377;SDS011;51982;51.042;13.806;2023-09-19T08:39:21;3.60;;;0.90;;
65377;SDS011;51982;51.042;13.806;2023-09-19T08:41:47;2.28;;;1.00;;
65377;SDS011;51982;51.042;13.806;2023-09-19T08:44:12;2.88;;;0.90;;
65377;SDS011;51982;51.042;13.806;2023-09-19T08:46:38;1.55;;;0.90;;
65377;SDS011;51982;51.042;13.806;2023-09-19T08:49:11;2.55;;;1.20;;
65377;SDS011;51982;51.042;13.806;2023-09-19T08:51:47;0.82;;;0.68;;
65377;SDS011;51982;51.042;13.806;2023-09-19T08:54:25;3.75;;;1.10;;
65377;SDS011;51982;51.042;13.806;2023-09-19T08:56:54;2.92;;;0.80;;
65377;SDS011;51982;51.042;13.806;2023-09-19T08:59:23;4.13;;;0.95;;
65377;SDS011;51982;51.042;13.806;2023-09-19T09:01:51;1.90;;;0.80;;
65377;SDS011;51982;51.042;13.806;2023-09-19T09:04:18;1.67;;;1.10;;
65377;SDS011;51982;51.042;13.806;2023-09-19T09:06:45;1.92;;;0.90;;
65377;SDS011;51982;51.042;13.806;2023-09-19T09:09:14;1.80;;;0.80;;
65377;SDS011;51982;51.042;13.806;2023-09-19T09:11:40;1.85;;;0.80;;
65377;SDS011;51982;51.042;13.806;2023-09-19T09:14:06;1.45;;;0.80;;
65377;SDS011;51982;51.042;13.806;2023-09-19T09:16:34;3.67;;;0.80;;
65377;SDS011;51982;51.042;13.806;2023-09-19T09:18:59;2.63;;;0.88;;
65377;SDS011;51982;51.042;13.806;2023-09-19T09:21:25;1.20;;;0.88;;
65377;SDS011;51982;51.042;13.806;2023-09-19T09:23:51;1.58;;;0.70;;
65377;SDS011;51982;51.042;13.806;2023-09-19T09:26:17;1.40;;;0.70;;
65377;SDS011;51982;51.042;13.806;2023-09-19T09:29:05;3.42;;;0.95;;
65377;SDS011;51982;51.042;13.806;2023-09-19T09:31:30;2.85;;;0.77;;
65377;SDS011;51982;51.042;13.806;2023-09-19T09:33:56;2.72;;;0.82;;
65377;SDS011;51982;51.042;13.806;2023-09-19T09:36:39;2.88;;;0.80;;
65377;SDS011;51982;51.042;13.806;2023-09-19T09:39:06;1.30;;;0.70;;
65377;SDS011;51982;51.042;13.806;2023-09-19T09:41:43;2.45;;;0.98;;
65377;SDS011;51982;51.042;13.806;2023-09-19T09:44:12;2.28;;;1.13;;
65377;SDS011;51982;51.042;13.806;2023-09-19T09:46:42;1.98;;;0.98;;
65377;SDS011;51982;51.042;13.806;2023-09-19T09:49:23;1.13;;;0.80;;
65377;SDS011;51982;51.042;13.806;2023-09-19T09:51:59;1.85;;;0.90;;
65377;SDS011;51982;51.042;13.806;2023-09-19T09:54:57;1.23;;;0.68;;
65377;SDS011;51982;51.042;13.806;2023-09-19T09:57:30;1.90;;;0.90;;
65377;SDS011;51982;51.042;13.806;2023-09-19T09:59:56;1.42;;;0.80;;
65377;SDS011;51982;51.042;13.806;2023-09-19T10:05:03;2.65;;;0.90;;
65377;SDS011;51982;51.042;13.806;2023-09-19T10:07:47;4.20;;;1.05;;
65377;SDS011;51982;51.042;13.806;2023-09-19T10:13:07;1.00;;;0.90;;
65377;SDS011;51982;51.042;13.806;2023-09-19T10:15:37;4.75;;;0.93;;
65377;SDS011;51982;51.042;13.806;2023-09-19T10:18:04;2.83;;;0.98;;
65377;SDS011;51982;51.042;13.806;2023-09-19T10:20:30;1.75;;;0.90;;
65377;SDS011;51982;51.042;13.806;2023-09-19T10:22:55;0.77;;;0.70;;
65377;SDS011;51982;51.042;13.806;2023-09-19T10:25:26;1.63;;;0.75;;
65377;SDS011;51982;51.042;13.806;2023-09-19T10:27:56;0.98;;;0.68;;
65377;SDS011;51982;51.042;13.806;2023-09-19T10:30:24;2.60;;;0.80;;
65377;SDS011;51982;51.042;13.806;2023-09-19T10:32:59;2.83;;;0.90;;
65377;SDS011;51982;51.042;13.806;2023-09-19T10:35:29;3.35;;;1.13;;
65377;SDS011;51982;51.042;13.806;2023-09-19T10:37:57;2.72;;;0.70;;
65377;SDS011;51982;51.042;13.806;2023-09-19T10:40:26;1.52;;;0.80;;
65377;SDS011;51982;51.042;13.806;2023-09-19T10:42:58;1.17;;;0.80;;
65377;SDS011;51982;51.042;13.806;2023-09-19T10:45:26;0.98;;;0.80;;
65377;SDS011;51982;51.042;13.806;2023-09-19T10:47:56;1.38;;;0.70;;
65377;SDS011;51982;51.042;13.806;2023-09-19T10:50:22;1.30;;;0.80;;
65377;SDS011;51982;51.042;13.806;2023-09-19T10:52:48;2.20;;;0.90;;
65377;SDS011;51982;51.042;13.806;2023-09-19T10:55:17;1.42;;;0.80;;
65377;SDS011;51982;51.042;13.806;2023-09-19T10:57:44;3.03;;;1.10;;
65377;SDS011;51982;51.042;13.806;2023-09-19T11:00:11;5.50;;;0.73;;
65377;SDS011;51982;51.042;13.806;2023-09-19T11:05:34;2.43;;;0.93;;
65377;SDS011;51982;51.042;13.806;2023-09-19T11:08:00;2.45;;;0.95;;
65377;SDS011;51982;51.042;13.806;2023-09-19T11:10:44;3.70;;;0.80;;
65377;SDS011;51982;51.042;13.806;2023-09-19T11:13:46;3.40;;;1.17;;
65377;SDS011;51982;51.042;13.806;2023-09-19T11:16:06;1.80;;;1.00;;
65377;SDS011;51982;51.042;13.806;2023-09-19T11:26:41;4.85;;;1.00;;
65377;SDS011;51982;51.042;13.806;2023-09-19T11:31:50;1.42;;;0.90;;
65377;SDS011;51982;51.042;13.806;2023-09-19T11:39:28;1.45;;;0.85;;
65377;SDS011;51982;51.042;13.806;2023-09-19T11:41:54;3.17;;;1.58;;
65377;SDS011;51982;51.042;13.806;2023-09-19T11:46:55;6.47;;;1.10;;
65377;SDS011;51982;51.042;13.806;2023-09-19T11:49:26;3.00;;;1.10;;
65377;SDS011;51982;51.042;13.806;2023-09-19T11:51:55;3.08;;;1.10;;
65377;SDS011;51982;51.042;13.806;2023-09-19T11:54:21;1.75;;;1.17;;
65377;SDS011;51982;51.042;13.806;2023-09-19T11:56:56;2.70;;;1.17;;
65377;SDS011;51982;51.042;13.806;2023-09-19T11:59:23;2.42;;;1.30;;
65377;SDS011;51982;51.042;13.806;2023-09-19T12:01:50;3.55;;;1.40;;
65377;SDS011;51982;51.042;13.806;2023-09-19T12:04:33;2.50;;;1.20;;
65377;SDS011;51982;51.042;13.806;2023-09-19T12:06:58;4.80;;;1.20;;
65377;SDS011;51982;51.042;13.806;2023-09-19T12:09:24;1.63;;;1.00;;
65377;SDS011;51982;51.042;13.806;2023-09-19T12:11:50;3.92;;;1.40;;
65377;SDS011;51982;51.042;13.806;2023-09-19T12:14:23;1.55;;;1.00;;
65377;SDS011;51982;51.042;13.806;2023-09-19T12:16:54;2.30;;;1.05;;
65377;SDS011;51982;51.042;13.806;2023-09-19T12:19:21;2.05;;;1.30;;
65377;SDS011;51982;51.042;13.806;2023-09-19T12:21:54;3.70;;;1.33;;
65377;SDS011;51982;51.042;13.806;2023-09-19T12:24:22;2.35;;;1.13;;
65377;SDS011;51982;51.042;13.806;2023-09-19T12:26:51;4.15;;;1.13;;
65377;SDS011;51982;51.042;13.806;2023-09-19T12:31:52;1.95;;;1.00;;
65377;SDS011;51982;51.042;13.806;2023-09-19T12:34:23;1.67;;;1.00;;
65377;SDS011;51982;51.042;13.806;2023-09-19T12:37:13;2.42;;;1.00;;
65377;SDS011;51982;51.042;13.806;2023-09-19T12:39:45;1.70;;;0.93;;
65377;SDS011;51982;51.042;13.806;2023-09-19T12:42:14;1.35;;;0.80;;
65377;SDS011;51982;51.042;13.806;2023-09-19T12:44:41;2.75;;;1.05;;
65377;SDS011;51982;51.042;13.806;2023-09-19T12:47:27;2.30;;;0.95;;
65377;SDS011;51982;51.042;13.806;2023-09-19T12:52:48;3.03;;;1.23;;
65377;SDS011;51982;51.042;13.806;2023-09-19T12:55:24;5.55;;;1.10;;
65377;SDS011;51982;51.042;13.806;2023-09-19T13:00:43;2.35;;;0.98;;
65377;SDS011;51982;51.042;13.806;2023-09-19T13:03:45;2.20;;;0.90;;
65377;SDS011;51982;51.042;13.806;2023-09-19T13:06:04;2.15;;;0.90;;
65377;SDS011;51982;51.042;13.806;2023-09-19T13:08:30;1.38;;;0.80;;
65377;SDS011;51982;51.042;13.806;2023-09-19T13:14:13;2.53;;;1.08;;
65377;SDS011;51982;51.042;13.806;2023-09-19T13:16:56;3.75;;;1.00;;
65377;SDS011;51982;51.042;13.806;2023-09-19T13:19:44;4.22;;;0.90;;
65377;SDS011;51982;51.042;13.806;2023-09-19T13:25:01;2.05;;;0.90;;
65377;SDS011;51982;51.042;13.806;2023-09-19T13:27:28;2.25;;;0.95;;
65377;SDS011;51982;51.042;13.806;2023-09-19T13:29:54;2.83;;;1.00;;
65377;SDS011;51982;51.042;13.806;2023-09-19T13:32:19;2.07;;;1.03;;
65377;SDS011;51982;51.042;13.806;2023-09-19T13:34:44;2.00;;;1.10;;
65377;SDS011;51982;51.042;13.806;2023-09-19T13:37:09;2.63;;;1.00;;
65377;SDS011;51982;51.042;13.806;2023-09-19T13:39:35;3.58;;;1.10;;
65377;SDS011;51982;51.042;13.806;2023-09-19T13:42:01;2.22;;;0.93;;
65377;SDS011;51982;51.042;13.806;2023-09-19T13:44:27;2.47;;;0.80;;
65377;SDS011;51982;51.042;13.806;2023-09-19T13:46:54;2.75;;;1.00;;
65377;SDS011;51982;51.042;13.806;2023-09-19T13:49:20;2.17;;;1.10;;
65377;SDS011;51982;51.042;13.806;2023-09-19T13:51:46;2.95;;;1.20;;
65377;SDS011;51982;51.042;13.806;2023-09-19T13:54:11;3.40;;;1.20;;
65377;SDS011;51982;51.042;13.806;2023-09-19T13:56:37;3.45;;;1.15;;
65377;SDS011;51982;51.042;13.806;2023-09-19T13:59:03;3.25;;;1.23;;
65377;SDS011;51982;51.042;13.806;2023-09-19T14:01:28;1.73;;;1.10;;
65377;SDS011;51982;51.042;13.806;2023-09-19T14:03:56;1.67;;;1.05;;
65377;SDS011;51982;51.042;13.806;2023-09-19T14:06:22;3.38;;;1.20;;
65377;SDS011;51982;51.042;13.806;2023-09-19T14:08:47;1.80;;;1.10;;
65377;SDS011;51982;51.042;13.806;2023-09-19T14:11:14;6.63;;;1.10;;
65377;SDS011;51982;51.042;13.806;2023-09-19T14:13:41;3.80;;;1.20;;
65377;SDS011;51982;51.042;13.806;2023-09-19T14:16:13;2.72;;;1.20;;
65377;SDS011;51982;51.042;13.806;2023-09-19T14:18:39;2.67;;;1.00;;
65377;SDS011;51982;51.042;13.806;2023-09-19T14:21:05;2.08;;;1.10;;
65377;SDS011;51982;51.042;13.806;2023-09-19T14:23:39;2.35;;;1.20;;
65377;SDS011;51982;51.042;13.806;2023-09-19T14:26:06;4.03;;;1.33;;
65377;SDS011;51982;51.042;13.806;2023-09-19T14:28:32;3.80;;;1.55;;
65377;SDS011;51982;51.042;13.806;2023-09-19T14:31:03;2.33;;;1.08;;
65377;SDS011;51982;51.042;13.806;2023-09-19T14:33:29;1.70;;;0.95;;
65377;SDS011;51982;51.042;13.806;2023-09-19T14:35:56;2.08;;;1.20;;
65377;SDS011;51982;51.042;13.806;2023-09-19T14:38:21;2.90;;;1.27;;
65377;SDS011;51982;51.042;13.806;2023-09-19T14:40:58;1.75;;;1.00;;
65377;SDS011;51982;51.042;13.806;2023-09-19T14:43:30;1.77;;;1.15;;
65377;SDS011;51982;51.042;13.806;2023-09-19T14:45:57;4.38;;;1.38;;
65377;SDS011;51982;51.042;13.806;2023-09-19T14:48:27;2.85;;;1.00;;
65377;SDS011;51982;51.042;13.806;2023-09-19T14:50:52;4.37;;;1.30;;
65377;SDS011;51982;51.042;13.806;2023-09-19T14:53:18;2.42;;;1.25;;
65377;SDS011;51982;51.042;13.806;2023-09-19T14:55:44;4.25;;;1.40;;
65377;SDS011;51982;51.042;13.806;2023-09-19T14:58:10;2.60;;;1.40;;
65377;SDS011;51982;51.042;13.806;2023-09-19T15:00:36;3.28;;;1.30;;
65377;SDS011;51982;51.042;13.806;2023-09-19T15:03:01;1.67;;;1.20;;
65377;SDS011;51982;51.042;13.806;2023-09-19T15:05:27;3.90;;;1.30;;
65377;SDS011;51982;51.042;13.806;2023-09-19T15:07:54;2.72;;;1.30;;
65377;SDS011;51982;51.042;13.806;2023-09-19T15:10:20;3.05;;;1.20;;
65377;SDS011;51982;51.042;13.806;2023-09-19T15:12:47;2.55;;;1.17;;
65377;SDS011;51982;51.042;13.806;2023-09-19T15:15:12;2.40;;;1.30;;
65377;SDS011;51982;51.042;13.806;2023-09-19T15:17:38;1.85;;;1.27;;
65377;SDS011;51982;51.042;13.806;2023-09-19T15:20:03;1.83;;;1.23;;
65377;SDS011;51982;51.042;13.806;2023-09-19T15:22:32;3.05;;;1.40;;
65377;SDS011;51982;51.042;13.806;2023-09-19T15:25:01;3.35;;;1.17;;
65377;SDS011;51982;51.042;13.806;2023-09-19T15:27:27;1.67;;;1.25;;
65377;SDS011;51982;51.042;13.806;2023-09-19T15:29:55;5.75;;;1.40;;